Time;durP1;ratioP1;P1;durP2;ratioP2;P2;SDS_P1;SDS_P2;PMS_P1;PMS_P2;Temp;Humidity;BMP_temperature;BMP_pressure;BME280_temperature;BME280_humidity;BME280_pressure;Samples;Min_cycle;Max_cycle;Signal;HPM_P1;HPM_P2
2021/12/30 00:02:51;;;;;;;17.23;7.50;;;13.50;75.70;;;;;;6239274;28;20037;-73
2021/12/30 00:05:53;;;;;;;12.23;6.97;;;13.40;75.70;;;;;;6224194;28;20037;-72
2021/12/30 00:08:54;;;;;;;15.15;6.93;;;13.50;75.80;;;;;;6235003;28;20069;-72
2021/12/30 00:11:56;;;;;;;11.75;6.85;;;13.50;75.80;;;;;;6232929;28;20099;-72
2021/12/30 00:14:57;;;;;;;12.23;7.15;;;13.50;75.80;;;;;;6236869;28;20128;-72
2021/12/30 00:17:59;;;;;;;12.32;6.30;;;13.50;75.70;;;;;;6241358;28;20049;-72
2021/12/30 00:21:00;;;;;;;11.80;5.85;;;13.50;75.70;;;;;;6229410;28;20368;-72
2021/12/30 00:24:01;;;;;;;9.20;5.53;;;13.50;75.60;;;;;;6227341;28;20370;-72
2021/12/30 00:27:02;;;;;;;12.38;5.20;;;13.50;75.70;;;;;;6241102;28;20049;-72
2021/12/30 00:30:07;;;;;;;9.88;5.38;;;13.50;75.60;;;;;;6241894;28;20034;-72
2021/12/30 00:33:09;;;;;;;9.40;5.38;;;13.50;75.70;;;;;;6223961;28;20108;-72
2021/12/30 00:36:11;;;;;;;15.35;5.88;;;13.50;75.60;;;;;;6233997;28;20041;-72
2021/12/30 00:39:13;;;;;;;9.73;5.65;;;13.50;76.30;;;;;;6230162;28;20045;-72
2021/12/30 00:42:15;;;;;;;9.02;5.85;;;13.50;75.50;;;;;;6241103;28;20053;-73
2021/12/30 00:45:16;;;;;;;11.77;6.18;;;13.50;75.60;;;;;;6226145;28;20038;-72
2021/12/30 00:48:18;;;;;;;12.77;6.00;;;13.40;75.70;;;;;;6244804;28;20116;-72
2021/12/30 00:51:19;;;;;;;9.48;5.43;;;13.50;75.70;;;;;;6243432;28;20068;-72
2021/12/30 00:54:20;;;;;;;10.68;5.75;;;13.40;75.70;;;;;;6235005;28;20467;-72
2021/12/30 00:57:21;;;;;;;10.15;5.90;;;13.40;75.70;;;;;;6232803;28;20118;-72
2021/12/30 01:00:23;;;;;;;11.63;6.65;;;13.40;75.70;;;;;;6238612;28;20026;-73
2021/12/30 01:03:24;;;;;;;10.50;5.20;;;13.40;75.80;;;;;;6228741;28;20354;-72
2021/12/30 01:06:25;;;;;;;11.65;6.32;;;13.40;75.70;;;;;;6235489;28;20052;-72
2021/12/30 01:09:26;;;;;;;14.85;6.78;;;13.40;75.70;;;;;;6242388;28;20059;-74
2021/12/30 01:12:28;;;;;;;14.35;7.43;;;13.40;75.60;;;;;;6240613;28;20033;-71
2021/12/30 01:15:35;;;;;;;12.32;6.50;;;13.30;75.60;;;;;;6232941;28;20033;-71
2021/12/30 01:18:53;;;;;;;13.13;6.45;;;13.30;75.70;;;;;;6241040;28;20115;-71
2021/12/30 01:21:54;;;;;;;12.90;6.85;;;13.20;75.90;;;;;;6250424;28;20099;-73
2021/12/30 01:24:56;;;;;;;10.75;6.05;;;13.20;75.90;;;;;;6239796;28;20033;-72
2021/12/30 01:27:57;;;;;;;13.13;7.40;;;13.20;75.90;;;;;;6231128;28;20046;-72
2021/12/30 01:30:58;;;;;;;12.23;6.80;;;13.10;75.90;;;;;;6243507;28;20406;-72
2021/12/30 01:33:59;;;;;;;12.77;7.53;;;13.10;76.00;;;;;;6220242;28;20033;-72
2021/12/30 01:37:03;;;;;;;16.48;7.82;;;13.10;76.10;;;;;;6242766;28;20048;-72
2021/12/30 01:40:10;;;;;;;19.33;7.75;;;13.20;76.10;;;;;;6237831;28;20030;-72
2021/12/30 01:43:11;;;;;;;14.77;7.10;;;13.20;76.00;;;;;;6245690;28;20033;-71
2021/12/30 01:46:13;;;;;;;14.25;7.15;;;13.20;76.10;;;;;;6232298;28;20080;-72
2021/12/30 01:49:14;;;;;;;17.58;7.40;;;13.20;76.00;;;;;;6240080;28;20026;-71
2021/12/30 01:52:15;;;;;;;14.85;7.95;;;13.20;76.10;;;;;;6245326;28;20030;-72
2021/12/30 01:55:18;;;;;;;15.88;8.43;;;13.20;76.10;;;;;;6245857;28;20121;-72
2021/12/30 01:58:20;;;;;;;15.40;8.10;;;13.20;76.10;;;;;;6231817;28;20108;-72
2021/12/30 02:01:23;;;;;;;17.95;8.82;;;13.30;76.10;;;;;;6244102;28;20538;-71
2021/12/30 02:04:26;;;;;;;15.43;8.30;;;13.30;75.90;;;;;;6243741;28;20091;-71
2021/12/30 02:07:27;;;;;;;15.23;8.75;;;13.30;75.90;;;;;;6242820;28;20034;-73
2021/12/30 02:10:28;;;;;;;19.15;8.35;;;13.40;75.90;;;;;;6245025;28;20378;-72
2021/12/30 02:13:30;;;;;;;16.23;8.32;;;13.40;75.90;;;;;;6222531;28;20435;-72
2021/12/30 02:16:31;;;;;;;21.00;8.05;;;13.40;75.80;;;;;;6209193;28;20048;-72
2021/12/30 02:19:33;;;;;;;16.67;8.43;;;13.40;75.80;;;;;;6204400;28;20034;-72
2021/12/30 02:22:34;;;;;;;16.27;8.55;;;13.40;75.70;;;;;;6233432;28;20092;-72
2021/12/30 02:25:36;;;;;;;13.85;7.45;;;13.40;75.70;;;;;;6236604;28;20083;-72
2021/12/30 02:28:38;;;;;;;12.90;6.78;;;13.40;75.70;;;;;;6235572;28;20057;-72
2021/12/30 02:31:40;;;;;;;14.15;7.47;;;13.40;75.70;;;;;;6242713;28;20066;-71
2021/12/30 02:34:41;;;;;;;12.27;6.90;;;13.40;75.90;;;;;;6229114;28;20533;-73
2021/12/30 02:37:42;;;;;;;13.35;7.50;;;13.50;75.90;;;;;;6237005;28;20097;-71
2021/12/30 02:40:49;;;;;;;11.30;6.82;;;13.50;75.90;;;;;;6235086;28;20033;-71
2021/12/30 02:43:50;;;;;;;11.10;6.35;;;13.50;75.90;;;;;;6219244;28;20129;-72
2021/12/30 02:46:53;;;;;;;14.93;6.65;;;13.50;75.80;;;;;;6210748;28;20034;-73
2021/12/30 02:49:54;;;;;;;12.23;6.40;;;13.50;75.70;;;;;;6219584;28;20037;-72
2021/12/30 02:52:55;;;;;;;11.60;6.25;;;13.60;75.80;;;;;;6217774;28;20042;-72
2021/12/30 02:55:56;;;;;;;9.18;5.10;;;13.60;75.70;;;;;;6210189;28;20498;-72
2021/12/30 02:58:58;;;;;;;12.65;5.35;;;13.60;75.60;;;;;;6215275;28;20505;-72
2021/12/30 03:01:59;;;;;;;9.52;5.47;;;13.70;75.70;;;;;;6219770;28;20054;-72
2021/12/30 03:05:00;;;;;;;11.55;5.65;;;13.60;75.60;;;;;;6220226;28;20043;-72
2021/12/30 03:08:01;;;;;;;10.57;5.63;;;13.70;75.50;;;;;;6208451;28;20526;-72
2021/12/30 03:11:04;;;;;;;11.82;5.53;;;13.70;75.40;;;;;;6211796;28;20042;-72
2021/12/30 03:14:05;;;;;;;11.73;5.35;;;13.70;75.40;;;;;;6211279;28;20367;-73
2021/12/30 03:17:06;;;;;;;9.15;5.07;;;13.70;75.40;;;;;;6202310;28;20030;-73
2021/12/30 03:20:09;;;;;;;10.82;5.40;;;13.70;75.40;;;;;;6220546;28;20038;-73
2021/12/30 03:23:10;;;;;;;9.05;4.40;;;13.70;75.30;;;;;;6218181;28;20039;-74
2021/12/30 03:26:11;;;;;;;10.52;5.32;;;13.70;75.30;;;;;;6209278;28;20034;-72
2021/12/30 03:29:12;;;;;;;10.20;5.28;;;13.80;75.30;;;;;;6232557;28;20525;-72
2021/12/30 03:32:13;;;;;;;10.23;4.68;;;13.80;75.20;;;;;;6248036;28;20072;-73
2021/12/30 03:35:14;;;;;;;8.55;4.88;;;13.80;75.10;;;;;;6235057;28;20045;-72
2021/12/30 03:38:15;;;;;;;7.80;4.90;;;13.80;75.10;;;;;;6240786;28;20106;-72
2021/12/30 03:41:19;;;;;;;12.02;5.68;;;13.80;75.10;;;;;;6239312;28;20037;-72
2021/12/30 03:44:20;;;;;;;9.52;5.15;;;13.80;75.10;;;;;;6235795;28;20109;-73
2021/12/30 03:47:22;;;;;;;9.50;5.35;;;13.80;75.00;;;;;;6226506;28;20380;-73
2021/12/30 03:50:27;;;;;;;11.15;5.43;;;13.90;75.00;;;;;;6248029;28;20033;-72
2021/12/30 03:53:28;;;;;;;10.30;5.10;;;13.90;74.90;;;;;;6238229;28;20033;-72
2021/12/30 03:56:30;;;;;;;10.30;4.88;;;13.90;74.90;;;;;;6235820;28;20118;-74
2021/12/30 03:59:31;;;;;;;10.25;5.00;;;13.90;74.80;;;;;;6249237;28;20112;-72
2021/12/30 04:02:32;;;;;;;8.60;4.50;;;13.90;74.70;;;;;;6239417;28;20034;-72
2021/12/30 04:05:33;;;;;;;11.40;4.68;;;13.90;74.70;;;;;;6209236;28;20467;-72
2021/12/30 04:08:34;;;;;;;10.77;5.15;;;14.00;74.80;;;;;;6233219;28;20332;-72
2021/12/30 04:11:37;;;;;;;11.95;4.40;;;13.90;74.60;;;;;;6228356;28;20106;-74
2021/12/30 04:14:38;;;;;;;8.20;4.82;;;14.00;74.60;;;;;;6234710;28;20117;-72
2021/12/30 04:17:39;;;;;;;9.32;5.00;;;14.00;74.40;;;;;;6231896;28;20079;-72
2021/12/30 04:20:40;;;;;;;10.70;5.00;;;14.00;74.30;;;;;;6249240;28;20033;-73
2021/12/30 04:23:41;;;;;;;10.80;5.47;;;13.90;74.30;;;;;;6240611;28;20371;-73
2021/12/30 04:26:42;;;;;;;10.48;4.60;;;13.90;74.40;;;;;;6230901;28;20041;-73
2021/12/30 04:29:44;;;;;;;8.90;4.47;;;14.00;74.50;;;;;;6239615;28;20022;-73
2021/12/30 04:32:45;;;;;;;8.65;4.32;;;13.90;74.30;;;;;;6234168;28;20128;-73
2021/12/30 04:35:46;;;;;;;16.25;4.43;;;14.00;74.30;;;;;;6233638;28;20033;-72
2021/12/30 04:38:47;;;;;;;9.10;4.78;;;13.90;74.20;;;;;;6234332;28;20486;-73
2021/12/30 04:41:48;;;;;;;8.63;5.10;;;13.90;74.20;;;;;;6229560;28;20426;-71
2021/12/30 04:44:49;;;;;;;7.35;4.30;;;13.90;74.20;;;;;;6234427;28;20030;-72
2021/12/30 04:47:50;;;;;;;8.93;4.75;;;13.90;74.20;;;;;;6232203;28;20029;-72
2021/12/30 04:50:51;;;;;;;8.55;4.00;;;13.90;74.20;;;;;;6248787;28;20037;-73
2021/12/30 04:53:53;;;;;;;7.97;4.43;;;13.90;74.20;;;;;;6243674;28;20121;-73
2021/12/30 04:56:54;;;;;;;8.80;4.65;;;13.90;74.10;;;;;;6237840;28;20045;-73
2021/12/30 04:59:55;;;;;;;8.57;4.43;;;13.90;74.10;;;;;;6249935;28;20037;-73
2021/12/30 05:05:59;;;;;;;6.95;4.05;;;14.00;74.10;;;;;;6240928;28;20455;-72
2021/12/30 05:09:01;;;;;;;8.40;4.60;;;13.90;74.20;;;;;;6244420;28;20036;-72
2021/12/30 05:12:02;;;;;;;9.90;4.45;;;14.00;74.10;;;;;;6244089;28;20056;-71
2021/12/30 05:15:04;;;;;;;8.98;4.30;;;14.00;74.00;;;;;;6243345;28;20455;-71
2021/12/30 05:18:06;;;;;;;9.00;4.20;;;14.00;73.90;;;;;;6243477;28;20443;-71
2021/12/30 05:21:07;;;;;;;8.30;4.72;;;14.00;73.90;;;;;;6241293;28;20421;-71
2021/12/30 05:24:09;;;;;;;9.95;5.03;;;14.10;74.10;;;;;;6246790;28;20041;-72
2021/12/30 05:27:10;;;;;;;9.25;4.75;;;14.10;74.00;;;;;;6228972;28;20104;-71
2021/12/30 05:30:12;;;;;;;12.38;5.05;;;14.10;73.80;;;;;;6237755;28;20038;-72
2021/12/30 05:33:14;;;;;;;8.57;4.85;;;14.10;73.70;;;;;;6242583;28;20120;-73
2021/12/30 05:36:15;;;;;;;8.38;4.78;;;14.10;73.50;;;;;;6232307;28;20037;-72
2021/12/30 05:39:16;;;;;;;11.18;5.13;;;14.10;73.50;;;;;;6228897;28;20057;-72
2021/12/30 05:42:17;;;;;;;9.77;5.07;;;14.00;73.50;;;;;;6235268;28;20045;-72
2021/12/30 05:45:19;;;;;;;9.20;5.10;;;14.10;73.70;;;;;;6226094;28;20509;-73
2021/12/30 05:48:21;;;;;;;7.53;4.45;;;14.10;73.60;;;;;;6230901;28;20118;-72
2021/12/30 05:51:22;;;;;;;10.93;4.65;;;14.00;73.50;;;;;;6236470;28;20041;-72
2021/12/30 05:54:23;;;;;;;6.55;4.47;;;14.00;73.60;;;;;;6236375;28;20041;-72
2021/12/30 05:57:24;;;;;;;8.40;4.97;;;14.00;73.60;;;;;;6239554;28;20029;-72
2021/12/30 06:00:27;;;;;;;9.77;5.20;;;14.00;73.60;;;;;;6237337;28;20101;-73
2021/12/30 06:03:28;;;;;;;10.13;5.13;;;14.10;73.50;;;;;;6241757;28;20489;-73
2021/12/30 06:06:29;;;;;;;9.73;5.00;;;14.00;73.50;;;;;;6244310;28;20045;-72
2021/12/30 06:09:30;;;;;;;10.30;4.70;;;14.00;73.50;;;;;;6239728;28;20367;-72
2021/12/30 06:12:32;;;;;;;8.57;5.18;;;14.10;73.50;;;;;;6244130;28;20116;-72
2021/12/30 06:15:33;;;;;;;13.45;5.32;;;14.00;73.50;;;;;;6233325;28;20097;-72
2021/12/30 06:18:34;;;;;;;7.22;4.68;;;14.10;73.40;;;;;;6235389;28;20034;-72
2021/12/30 06:21:35;;;;;;;10.02;5.25;;;14.10;73.40;;;;;;6242836;28;20054;-71
2021/12/30 06:24:36;;;;;;;12.68;5.18;;;14.10;73.40;;;;;;6235898;28;20036;-72
2021/12/30 06:27:37;;;;;;;11.75;5.45;;;14.10;73.40;;;;;;6228084;28;20062;-72
2021/12/30 06:30:38;;;;;;;11.50;5.65;;;14.10;73.20;;;;;;6227541;28;20052;-72
2021/12/30 06:33:40;;;;;;;9.77;5.40;;;14.00;73.20;;;;;;6243255;28;20026;-72
2021/12/30 06:36:41;;;;;;;10.82;5.60;;;14.00;73.30;;;;;;6239906;28;20102;-72
2021/12/30 06:39:42;;;;;;;12.48;5.78;;;14.00;73.40;;;;;;6228970;28;20497;-72
2021/12/30 06:42:44;;;;;;;10.82;5.68;;;14.00;73.50;;;;;;6246180;28;20057;-72
2021/12/30 06:45:46;;;;;;;18.60;7.90;;;14.00;73.60;;;;;;6212421;28;20029;-72
2021/12/30 06:48:47;;;;;;;15.05;7.28;;;14.00;73.50;;;;;;6243236;28;20091;-72
2021/12/30 06:51:48;;;;;;;17.35;8.73;;;14.10;73.50;;;;;;6245647;28;20491;-72
2021/12/30 06:54:49;;;;;;;19.67;8.68;;;14.00;73.60;;;;;;6238435;28;20045;-72
2021/12/30 06:57:50;;;;;;;14.30;7.10;;;14.10;73.70;;;;;;6240978;28;20030;-72
2021/12/30 07:00:51;;;;;;;14.75;7.55;;;14.10;73.70;;;;;;6240591;28;20030;-72
2021/12/30 07:03:52;;;;;;;14.40;7.40;;;14.10;73.70;;;;;;6231752;28;20053;-72
2021/12/30 07:06:53;;;;;;;13.60;6.65;;;14.10;73.70;;;;;;6236286;28;20034;-72
2021/12/30 07:09:54;;;;;;;15.10;6.40;;;14.20;73.80;;;;;;6233772;28;20340;-71
2021/12/30 07:12:55;;;;;;;11.30;6.30;;;14.20;73.70;;;;;;6222918;28;20069;-71
2021/12/30 07:15:57;;;;;;;13.05;7.00;;;14.30;73.60;;;;;;6240207;28;20371;-71
2021/12/30 07:18:58;;;;;;;15.65;7.78;;;14.30;73.50;;;;;;6238071;28;20042;-72
2021/12/30 07:21:59;;;;;;;15.80;6.88;;;14.20;73.50;;;;;;6250959;28;20091;-71
2021/12/30 07:25:00;;;;;;;12.80;6.93;;;14.30;73.40;;;;;;6245520;28;20128;-72
2021/12/30 07:28:03;;;;;;;12.18;6.18;;;14.30;73.50;;;;;;6225720;28;20052;-72
2021/12/30 07:31:04;;;;;;;16.23;7.57;;;14.30;73.30;;;;;;6238750;28;20042;-72
2021/12/30 07:34:05;;;;;;;16.92;7.65;;;14.30;73.10;;;;;;6243997;28;20125;-71
2021/12/30 07:37:06;;;;;;;10.57;6.05;;;14.30;73.20;;;;;;6224435;28;20045;-73
2021/12/30 07:40:09;;;;;;;11.18;6.00;;;14.30;73.30;;;;;;6245445;28;20033;-73
2021/12/30 07:43:11;;;;;;;11.45;6.32;;;14.40;73.30;;;;;;6229829;28;20072;-72
2021/12/30 07:46:12;;;;;;;13.48;7.07;;;14.40;73.20;;;;;;6239348;28;20367;-72
2021/12/30 07:49:13;;;;;;;14.40;6.70;;;14.40;73.10;;;;;;6244162;28;20050;-71
2021/12/30 07:52:15;;;;;;;13.85;6.78;;;14.40;73.00;;;;;;6222257;28;20056;-71
2021/12/30 07:55:16;;;;;;;11.98;6.68;;;14.40;73.00;;;;;;6227608;28;20106;-73
2021/12/30 07:58:17;;;;;;;16.63;7.07;;;14.40;73.00;;;;;;6243049;28;20045;-71
2021/12/30 08:01:18;;;;;;;18.20;7.75;;;14.40;72.80;;;;;;6223220;28;20048;-71
2021/12/30 08:04:19;;;;;;;20.20;8.07;;;14.60;73.00;;;;;;6242302;28;20034;-71
2021/12/30 08:07:22;;;;;;;14.35;7.00;;;14.40;72.90;;;;;;6246082;28;20030;-72
2021/12/30 08:10:24;;;;;;;15.65;7.43;;;14.50;72.90;;;;;;6232020;28;20037;-71
2021/12/30 08:13:26;;;;;;;11.25;5.68;;;14.50;72.80;;;;;;6240312;28;20041;-71
2021/12/30 08:16:28;;;;;;;16.90;7.22;;;14.50;72.70;;;;;;6242049;28;20447;-71
2021/12/30 08:19:29;;;;;;;12.88;7.15;;;14.50;72.80;;;;;;6235043;28;20348;-71
2021/12/30 08:22:30;;;;;;;11.85;5.93;;;14.50;72.80;;;;;;6235753;28;20052;-73
2021/12/30 08:25:33;;;;;;;14.25;6.60;;;14.50;72.80;;;;;;6230672;28;20084;-72
2021/12/30 08:28:34;;;;;;;15.25;6.53;;;14.60;72.90;;;;;;6239963;28;20099;-72
2021/12/30 08:31:35;;;;;;;11.15;6.40;;;14.60;72.90;;;;;;6239874;28;20084;-71
2021/12/30 08:34:37;;;;;;;12.27;6.82;;;14.60;72.90;;;;;;6239308;28;20441;-71
2021/12/30 08:37:39;;;;;;;15.73;6.68;;;14.70;73.00;;;;;;6244247;28;20382;-71
2021/12/30 08:40:41;;;;;;;17.90;8.45;;;14.80;73.00;;;;;;6233046;28;20080;-72
2021/12/30 08:43:42;;;;;;;16.25;8.02;;;14.80;72.80;;;;;;6233426;28;20037;-71
2021/12/30 08:46:43;;;;;;;17.88;8.18;;;14.90;72.80;;;;;;6241740;28;20375;-71
2021/12/30 08:49:46;;;;;;;13.77;6.72;;;14.80;72.60;;;;;;6202087;28;20034;-72
2021/12/30 08:52:47;;;;;;;15.55;7.32;;;14.90;72.60;;;;;;6220568;28;20034;-72
2021/12/30 08:55:48;;;;;;;17.75;8.20;;;14.90;72.70;;;;;;6237561;28;20073;-71
2021/12/30 08:58:49;;;;;;;20.48;9.20;;;15.00;72.80;;;;;;6246320;28;20040;-72
2021/12/30 09:01:50;;;;;;;17.73;8.77;;;15.10;72.70;;;;;;6230135;28;20038;-71
2021/12/30 09:04:51;;;;;;;16.70;7.65;;;15.10;72.50;;;;;;6231391;28;20025;-72
2021/12/30 09:07:53;;;;;;;16.38;7.82;;;15.20;72.30;;;;;;6233813;28;20541;-72
2021/12/30 09:10:54;;;;;;;17.10;8.35;;;15.30;72.20;;;;;;6236224;28;20038;-72
2021/12/30 09:13:55;;;;;;;18.88;8.05;;;15.30;71.90;;;;;;6240969;28;20312;-72
2021/12/30 09:16:56;;;;;;;17.42;8.27;;;15.30;71.60;;;;;;6223002;28;20390;-72
2021/12/30 09:19:57;;;;;;;22.65;9.10;;;15.40;71.50;;;;;;6251664;28;20042;-72
2021/12/30 09:22:58;;;;;;;17.05;8.68;;;15.40;71.40;;;;;;6251117;28;20044;-72
2021/12/30 09:25:59;;;;;;;19.60;7.70;;;15.30;71.20;;;;;;6227923;28;20086;-72
2021/12/30 09:29:04;;;;;;;17.67;8.07;;;15.30;71.00;;;;;;6244558;28;20037;-72
2021/12/30 09:32:05;;;;;;;18.30;8.05;;;15.30;71.00;;;;;;6242435;28;20038;-72
2021/12/30 09:35:08;;;;;;;20.88;9.05;;;15.30;71.00;;;;;;6235052;28;20046;-72
2021/12/30 09:38:09;;;;;;;12.95;7.25;;;15.30;70.90;;;;;;6234002;28;20049;-72
2021/12/30 09:41:10;;;;;;;24.40;8.05;;;15.40;70.90;;;;;;6242823;28;20082;-72
2021/12/30 09:44:16;;;;;;;18.08;8.27;;;15.50;70.80;;;;;;6234343;28;20381;-73
2021/12/30 09:47:17;;;;;;;18.80;8.25;;;15.50;70.50;;;;;;6217458;28;20125;-72
2021/12/30 09:50:22;;;;;;;21.00;9.20;;;15.50;71.20;;;;;;6221668;28;20042;-72
2021/12/30 09:53:25;;;;;;;19.95;9.65;;;15.50;70.30;;;;;;6234053;28;20459;-72
2021/12/30 09:56:28;;;;;;;19.63;10.57;;;15.50;70.30;;;;;;6237626;28;20033;-71
2021/12/30 09:59:31;;;;;;;29.40;13.60;;;15.60;70.30;;;;;;6237762;28;20037;-72
2021/12/30 10:02:32;;;;;;;23.90;10.93;;;15.60;70.30;;;;;;6221846;28;20340;-72
2021/12/30 10:05:37;;;;;;;21.38;8.60;;;15.60;70.30;;;;;;6239588;28;20430;-72
2021/12/30 10:08:42;;;;;;;19.60;8.25;;;15.60;70.10;;;;;;6245436;28;20103;-72
2021/12/30 10:11:50;;;;;;;17.77;7.55;;;15.60;70.00;;;;;;6250432;28;20038;-71
2021/12/30 10:14:53;;;;;;;15.70;7.35;;;15.70;70.20;;;;;;6214919;28;20048;-72
2021/12/30 10:17:56;;;;;;;17.38;7.18;;;15.70;70.00;;;;;;6219523;28;20026;-72
2021/12/30 10:20:57;;;;;;;15.45;8.40;;;15.80;69.80;;;;;;6221272;28;20490;-72
2021/12/30 10:24:00;;;;;;;21.02;8.70;;;15.80;69.80;;;;;;6244569;28;20038;-72
2021/12/30 10:27:02;;;;;;;18.05;8.45;;;15.80;69.80;;;;;;6243616;28;20053;-73
2021/12/30 10:30:05;;;;;;;21.35;9.65;;;15.80;69.50;;;;;;6234011;28;20103;-73
2021/12/30 10:33:23;;;;;;;29.35;14.00;;;15.80;69.40;;;;;;6242894;28;20459;-72
2021/12/30 10:36:31;;;;;;;31.92;13.15;;;15.80;69.60;;;;;;6242452;28;20030;-73
2021/12/30 10:39:34;;;;;;;34.93;10.03;;;15.70;69.50;;;;;;6232132;28;20120;-72
2021/12/30 10:42:34;;;;;;;33.55;16.20;;;15.80;69.70;;;;;;6243272;28;20494;-74
2021/12/30 10:45:35;;;;;;;33.83;15.82;;;15.80;69.50;;;;;;6234828;28;20034;-72
2021/12/30 10:48:59;;;;;;;26.30;11.70;;;15.80;69.50;;;;;;6233073;28;20038;-73
2021/12/30 10:52:05;;;;;;;17.73;8.63;;;15.80;69.40;;;;;;6254539;28;20133;-73
2021/12/30 10:55:12;;;;;;;18.13;8.02;;;15.80;69.40;;;;;;6239455;28;20041;-72
2021/12/30 10:58:25;;;;;;;16.67;7.78;;;15.80;69.20;;;;;;6234515;28;20044;-72
2021/12/30 11:01:26;;;;;;;21.35;8.00;;;15.80;69.30;;;;;;6237474;28;20030;-72
2021/12/30 11:04:38;;;;;;;20.70;9.40;;;15.90;69.30;;;;;;6220765;28;20041;-73
2021/12/30 11:07:38;;;;;;;20.77;9.68;;;15.90;69.10;;;;;;6228624;28;20030;-73
2021/12/30 11:10:40;;;;;;;21.63;9.75;;;16.00;69.00;;;;;;6232442;28;20091;-72
2021/12/30 11:14:04;;;;;;;16.73;8.50;;;16.10;69.10;;;;;;6234661;28;20529;-72
2021/12/30 11:17:12;;;;;;;23.45;10.43;;;16.20;68.90;;;;;;6230197;28;20083;-72
2021/12/30 11:20:17;;;;;;;18.80;9.18;;;16.30;68.40;;;;;;6246823;28;20034;-73
2021/12/30 11:23:18;;;;;;;17.65;8.90;;;16.40;67.90;;;;;;6245039;28;20096;-73
2021/12/30 11:26:19;;;;;;;17.67;8.43;;;16.50;67.70;;;;;;6233785;28;20038;-73
2021/12/30 11:29:21;;;;;;;17.00;8.32;;;16.60;67.50;;;;;;6243752;28;20038;-73
2021/12/30 11:32:28;;;;;;;17.52;9.07;;;16.70;67.30;;;;;;6243265;28;20057;-73
2021/12/30 11:35:29;;;;;;;14.35;7.22;;;16.80;67.00;;;;;;6210651;28;20045;-72
2021/12/30 11:38:30;;;;;;;13.52;6.90;;;16.90;66.60;;;;;;6241316;28;20050;-72
2021/12/30 11:41:32;;;;;;;12.48;6.63;;;17.00;66.30;;;;;;6226342;28;20042;-72
2021/12/30 11:44:43;;;;;;;17.65;7.22;;;17.10;66.20;;;;;;6234049;28;20041;-72
2021/12/30 11:47:44;;;;;;;20.77;7.60;;;17.30;66.20;;;;;;6214382;28;20037;-72
2021/12/30 11:50:45;;;;;;;17.70;8.25;;;17.40;65.80;;;;;;6245659;28;20037;-72
2021/12/30 11:53:47;;;;;;;22.13;10.00;;;17.50;65.10;;;;;;6233853;28;20433;-72
2021/12/30 11:57:32;;;;;;;24.75;10.98;;;17.50;65.00;;;;;;6246502;28;20076;-72
2021/12/30 12:00:37;;;;;;;22.48;10.18;;;17.50;64.90;;;;;;6204516;28;20117;-72
2021/12/30 12:03:56;;;;;;;22.58;10.68;;;17.50;64.80;;;;;;6214504;28;20038;-72
2021/12/30 12:07:02;;;;;;;24.92;12.05;;;17.40;64.70;;;;;;6218327;28;20038;-73
2021/12/30 12:10:16;;;;;;;24.67;10.77;;;17.40;65.00;;;;;;6219867;28;20121;-73
2021/12/30 12:13:34;;;;;;;21.55;9.90;;;17.20;64.90;;;;;;6220442;28;20096;-73
2021/12/30 12:16:48;;;;;;;20.95;10.93;;;17.20;65.20;;;;;;6203500;28;20049;-73
2021/12/30 12:19:51;;;;;;;21.13;10.40;;;17.10;65.40;;;;;;6212917;28;20487;-72
2021/12/30 12:22:52;;;;;;;22.75;9.90;;;17.10;65.60;;;;;;6211238;28;20482;-73
2021/12/30 12:26:12;;;;;;;24.65;10.77;;;17.10;65.80;;;;;;6204239;28;20033;-72
2021/12/30 12:29:46;;;;;;;22.15;10.82;;;17.10;65.90;;;;;;6202094;28;20046;-73
2021/12/30 12:32:47;;;;;;;20.77;9.50;;;17.10;66.00;;;;;;6138932;28;20060;-72
2021/12/30 12:35:49;;;;;;;19.90;10.20;;;17.10;65.70;;;;;;6156349;28;20397;-73
2021/12/30 12:38:51;;;;;;;21.08;10.15;;;17.10;65.80;;;;;;6123336;29;20570;-73
2021/12/30 12:41:52;;;;;;;22.70;10.38;;;17.10;66.00;;;;;;6123022;29;20048;-73
2021/12/30 12:45:16;;;;;;;24.10;10.23;;;17.10;66.10;;;;;;6123996;29;20039;-73
2021/12/30 12:48:17;;;;;;;19.92;9.60;;;17.10;66.00;;;;;;6121879;28;20476;-74
2021/12/30 12:51:25;;;;;;;24.13;10.48;;;17.10;65.80;;;;;;6137775;28;20091;-73
2021/12/30 12:54:40;;;;;;;23.98;11.07;;;17.10;65.70;;;;;;6145802;28;20040;-72
2021/12/30 12:57:41;;;;;;;19.55;9.85;;;17.20;65.70;;;;;;6146530;28;20227;-73
2021/12/30 13:00:42;;;;;;;22.30;9.93;;;17.20;65.50;;;;;;6112521;28;20035;-72
2021/12/30 13:03:44;;;;;;;18.40;8.90;;;17.20;65.40;;;;;;6130437;28;20038;-72
2021/12/30 13:06:45;;;;;;;19.08;9.40;;;17.30;65.50;;;;;;6135733;28;20031;-72
2021/12/30 13:09:49;;;;;;;20.10;9.80;;;17.30;65.30;;;;;;6230010;28;20462;-72
2021/12/30 13:12:51;;;;;;;23.40;9.93;;;17.30;65.30;;;;;;6241599;28;20344;-72
2021/12/30 13:15:52;;;;;;;18.02;9.85;;;17.40;65.30;;;;;;6234102;28;20060;-73
2021/12/30 13:19:02;;;;;;;18.88;8.32;;;17.50;65.40;;;;;;6235490;28;20033;-72
2021/12/30 13:22:11;;;;;;;17.52;8.77;;;17.50;65.10;;;;;;6250633;28;20048;-72
2021/12/30 13:25:12;;;;;;;21.83;9.95;;;17.50;65.00;;;;;;6242344;28;20071;-72
2021/12/30 13:28:13;;;;;;;21.52;10.68;;;17.60;65.00;;;;;;6232675;28;20041;-72
2021/12/30 13:31:16;;;;;;;22.60;10.98;;;17.60;65.00;;;;;;6244594;28;20045;-72
2021/12/30 13:34:17;;;;;;;23.02;11.20;;;17.60;64.80;;;;;;6240540;28;20060;-72
2021/12/30 13:37:19;;;;;;;17.17;9.82;;;17.60;64.70;;;;;;6239883;28;20045;-73
2021/12/30 13:40:24;;;;;;;25.30;11.60;;;17.70;64.80;;;;;;6220447;28;20036;-73
2021/12/30 13:43:25;;;;;;;19.08;11.35;;;17.70;64.70;;;;;;6245896;28;20044;-73
2021/12/30 13:46:26;;;;;;;20.83;10.15;;;17.70;64.80;;;;;;6230322;28;20042;-72
2021/12/30 13:49:28;;;;;;;23.45;12.40;;;17.70;64.80;;;;;;6228040;28;20061;-72
2021/12/30 13:52:30;;;;;;;18.95;9.93;;;17.80;64.70;;;;;;6246874;28;20462;-73
2021/12/30 13:55:36;;;;;;;18.38;9.80;;;17.80;64.40;;;;;;6236337;28;20081;-73
2021/12/30 13:58:43;;;;;;;16.77;8.15;;;17.70;64.40;;;;;;6236618;28;20171;-72
2021/12/30 14:01:44;;;;;;;17.05;9.02;;;17.70;64.40;;;;;;6243313;28;20030;-73
2021/12/30 14:04:45;;;;;;;20.40;9.75;;;17.70;64.50;;;;;;6247534;28;20422;-72
2021/12/30 14:07:49;;;;;;;22.55;10.98;;;17.70;65.40;;;;;;6234627;28;20121;-72
2021/12/30 14:11:02;;;;;;;22.13;10.43;;;17.70;64.60;;;;;;6231208;28;20366;-72
2021/12/30 14:14:09;;;;;;;24.27;11.68;;;17.70;64.50;;;;;;6242760;28;20041;-72
2021/12/30 14:17:11;;;;;;;25.05;10.82;;;17.70;64.50;;;;;;6243606;28;20116;-72
2021/12/30 14:20:14;;;;;;;23.95;11.95;;;17.60;64.40;;;;;;6231502;28;20037;-73
2021/12/30 14:23:37;;;;;;;25.75;11.85;;;17.60;64.50;;;;;;6239424;28;20148;-72
2021/12/30 14:26:41;;;;;;;23.70;10.77;;;17.60;64.70;;;;;;6234564;28;20026;-73
2021/12/30 14:29:43;;;;;;;21.85;11.55;;;17.50;64.70;;;;;;6238494;28;20180;-72
2021/12/30 14:32:44;;;;;;;21.42;11.15;;;17.60;64.90;;;;;;6240632;28;20113;-72
2021/12/30 14:35:46;;;;;;;26.88;11.57;;;17.50;64.90;;;;;;6232025;28;20125;-73
2021/12/30 14:38:47;;;;;;;30.13;13.27;;;17.60;65.00;;;;;;6242705;28;20052;-72
2021/12/30 14:41:48;;;;;;;21.38;10.73;;;17.60;65.00;;;;;;6241044;28;20038;-72
2021/12/30 14:44:56;;;;;;;23.73;11.85;;;17.60;65.00;;;;;;6241415;28;20030;-72
2021/12/30 14:48:02;;;;;;;25.25;10.80;;;17.50;64.90;;;;;;6237367;28;20111;-73
2021/12/30 14:51:18;;;;;;;20.10;9.70;;;17.50;64.90;;;;;;6252881;28;20029;-72
2021/12/30 14:54:19;;;;;;;23.05;10.55;;;17.50;65.00;;;;;;6237334;28;20432;-72
2021/12/30 14:57:24;;;;;;;22.95;11.05;;;17.40;65.10;;;;;;6245279;28;20030;-72
2021/12/30 15:00:28;;;;;;;19.50;9.73;;;17.40;65.10;;;;;;6243942;28;20038;-72
2021/12/30 15:03:29;;;;;;;26.35;10.60;;;17.40;65.10;;;;;;6242564;28;20037;-72
2021/12/30 15:06:30;;;;;;;22.73;9.43;;;17.40;65.10;;;;;;6238118;28;20040;-72
2021/12/30 15:09:32;;;;;;;22.55;9.52;;;17.40;65.20;;;;;;6227717;28;20439;-72
2021/12/30 15:12:36;;;;;;;26.55;10.38;;;17.30;66.00;;;;;;6234087;28;20447;-72
2021/12/30 15:15:38;;;;;;;27.67;11.93;;;17.30;65.30;;;;;;6246259;28;20466;-71
2021/12/30 15:18:40;;;;;;;26.48;11.90;;;17.30;65.50;;;;;;6207775;28;20030;-72
2021/12/30 15:21:43;;;;;;;26.35;11.90;;;17.20;65.40;;;;;;6233677;28;20037;-73
2021/12/30 15:24:44;;;;;;;24.85;12.52;;;17.20;65.40;;;;;;6245991;28;20061;-73
2021/12/30 15:27:45;;;;;;;26.88;13.93;;;17.20;65.50;;;;;;6242005;28;20487;-73
2021/12/30 15:30:46;;;;;;;30.23;14.75;;;17.20;65.50;;;;;;6240710;28;20033;-73
2021/12/30 15:33:48;;;;;;;27.95;12.48;;;17.10;65.70;;;;;;6234522;28;20056;-73
2021/12/30 15:36:49;;;;;;;26.80;13.30;;;17.10;65.90;;;;;;6238049;28;20386;-73
2021/12/30 15:39:50;;;;;;;31.10;13.77;;;17.10;66.00;;;;;;6239996;28;20040;-73
2021/12/30 15:42:52;;;;;;;28.40;13.98;;;17.00;66.20;;;;;;6226135;28;20066;-72